createdAt,value
2023-12-02T00:00:58.257Z,10.83
2023-12-02T00:05:59.656Z,9.82
2023-12-02T00:11:01.057Z,9.93
2023-12-02T00:16:02.364Z,10.10
2023-12-02T00:21:03.804Z,10.10
2023-12-02T00:26:05.257Z,9.03
2023-12-02T00:31:06.886Z,9.95
2023-12-02T00:36:08.423Z,10.18
2023-12-02T00:41:11.301Z,9.93
2023-12-02T00:46:12.642Z,9.43
2023-12-02T00:51:13.962Z,8.90
2023-12-02T00:56:15.328Z,9.02
2023-12-02T01:01:16.599Z,9.88
2023-12-02T01:06:17.959Z,9.40
2023-12-02T01:11:19.466Z,9.00
2023-12-02T01:16:20.781Z,8.43
2023-12-02T01:21:22.171Z,8.52
2023-12-02T01:26:24.613Z,8.27
2023-12-02T01:31:25.953Z,8.45
2023-12-02T01:36:27.897Z,9.13
2023-12-02T01:41:32.762Z,9.93
2023-12-02T01:46:34.085Z,9.15
2023-12-02T01:51:35.704Z,10.50
2023-12-02T01:56:37.145Z,8.65
2023-12-02T02:01:38.781Z,8.77
2023-12-02T02:06:40.301Z,8.63
2023-12-02T02:11:41.845Z,8.20
2023-12-02T02:16:43.151Z,7.88
2023-12-02T02:21:44.487Z,8.15
2023-12-02T02:26:45.758Z,7.63
2023-12-02T02:31:47.027Z,8.27
2023-12-02T02:36:48.394Z,8.10
2023-12-02T02:41:50.113Z,7.53
2023-12-02T02:46:51.878Z,7.57
2023-12-02T02:51:53.238Z,8.45
2023-12-02T02:56:54.825Z,7.87
2023-12-02T03:01:56.358Z,8.50
2023-12-02T03:06:57.805Z,7.55
2023-12-02T03:11:59.156Z,8.40
2023-12-02T03:17:00.455Z,9.55
2023-12-02T03:22:03.311Z,9.17
2023-12-02T03:27:04.824Z,7.93
2023-12-02T03:32:06.460Z,8.20
2023-12-02T03:37:08.009Z,7.70
2023-12-02T03:42:09.461Z,7.20
2023-12-02T03:47:10.748Z,7.93
2023-12-02T03:52:12.054Z,7.85
2023-12-02T03:57:13.350Z,6.97
2023-12-02T04:02:14.663Z,6.70
2023-12-02T04:07:16.036Z,7.32
2023-12-02T04:12:17.453Z,7.27
2023-12-02T04:17:18.813Z,6.65
2023-12-02T04:22:20.246Z,6.88
2023-12-02T04:27:22.086Z,6.93
2023-12-02T04:32:23.787Z,6.82
2023-12-02T04:37:25.243Z,6.93
2023-12-02T04:42:26.569Z,6.18
2023-12-02T04:47:27.893Z,6.50
2023-12-02T04:52:29.682Z,6.95
2023-12-02T04:57:32.179Z,6.38
2023-12-02T05:02:33.576Z,6.63
2023-12-02T05:07:34.898Z,6.97
2023-12-02T05:12:36.314Z,6.35
2023-12-02T05:17:37.859Z,6.88
2023-12-02T05:22:39.246Z,6.25
2023-12-02T05:27:40.681Z,6.37
2023-12-02T05:32:42.045Z,5.72
2023-12-02T05:37:43.398Z,6.43
2023-12-02T05:42:44.750Z,6.15
2023-12-02T05:47:46.104Z,5.68
2023-12-02T05:52:47.502Z,5.27
2023-12-02T05:57:48.867Z,6.10
2023-12-02T06:02:50.258Z,6.35
2023-12-02T06:07:51.551Z,5.93
2023-12-02T06:12:52.863Z,5.75
2023-12-02T06:17:57.715Z,5.97
2023-12-02T06:22:59.360Z,5.30
2023-12-02T06:28:00.681Z,5.93
2023-12-02T06:33:02.113Z,5.78
2023-12-02T06:38:03.471Z,5.72
2023-12-02T06:43:04.783Z,5.30
2023-12-02T06:48:06.192Z,6.30
2023-12-02T06:53:07.589Z,13.35
2023-12-02T06:58:09.178Z,14.02
2023-12-02T07:03:10.689Z,6.63
2023-12-02T07:08:12.042Z,5.60
2023-12-02T07:13:13.416Z,5.50
2023-12-02T07:18:14.899Z,5.78
2023-12-02T07:23:16.253Z,6.20
2023-12-02T07:28:17.593Z,5.40
2023-12-02T07:33:22.409Z,6.70
2023-12-02T07:38:23.757Z,5.78
2023-12-02T07:43:25.195Z,5.55
2023-12-02T07:48:26.616Z,5.07
2023-12-02T07:53:28.007Z,5.45
2023-12-02T07:58:29.393Z,5.37
2023-12-02T08:03:31.306Z,5.32
2023-12-02T08:08:32.649Z,5.35
2023-12-02T08:13:34.016Z,5.40
2023-12-02T08:18:35.400Z,5.13
2023-12-02T08:23:36.774Z,5.03
2023-12-02T08:28:38.140Z,5.45
2023-12-02T08:33:39.538Z,5.90
2023-12-02T08:38:40.858Z,4.97
2023-12-02T08:43:42.629Z,4.90
2023-12-02T08:48:44.896Z,5.23
2023-12-02T08:53:46.566Z,5.82
2023-12-02T08:58:47.978Z,5.78
2023-12-02T09:03:49.424Z,4.88
2023-12-02T09:08:50.886Z,9.50
2023-12-02T09:13:52.389Z,4.90
2023-12-02T09:18:53.924Z,4.97
2023-12-02T09:23:55.288Z,5.10
2023-12-02T09:28:56.723Z,5.35
2023-12-02T09:34:03.786Z,5.95
2023-12-02T09:39:10.787Z,4.77
2023-12-02T09:44:14.886Z,4.60
2023-12-02T09:49:28.593Z,4.35
2023-12-02T09:54:39.989Z,3.95
2023-12-02T09:59:53.296Z,4.43
2023-12-02T10:05:05.431Z,4.00
2023-12-02T10:10:11.121Z,3.53
2023-12-02T10:15:13.001Z,4.57
2023-12-02T10:20:15.688Z,3.72
2023-12-02T10:25:33.637Z,4.00
2023-12-02T10:30:37.643Z,4.70
2023-12-02T10:35:47.430Z,5.30
2023-12-02T10:40:51.617Z,4.43
2023-12-02T10:45:53.682Z,5.70
2023-12-02T10:50:55.299Z,7.25
2023-12-02T10:56:00.437Z,5.07
2023-12-02T11:01:05.510Z,6.00
2023-12-02T11:06:20.719Z,5.90
2023-12-02T11:11:29.845Z,5.47
2023-12-02T11:16:41.727Z,6.32
2023-12-02T11:21:45.644Z,7.30
2023-12-02T11:27:10.742Z,5.70
2023-12-02T11:32:20.725Z,5.47
2023-12-02T11:37:24.934Z,5.22
2023-12-02T11:42:30.563Z,5.03
2023-12-02T11:47:31.915Z,5.43
2023-12-02T11:52:48.230Z,6.50
2023-12-02T11:57:55.773Z,6.82
2023-12-02T12:02:57.173Z,6.85
2023-12-02T12:08:12.885Z,5.10
2023-12-02T12:13:15.496Z,4.60
2023-12-02T12:18:18.821Z,4.75
2023-12-02T12:23:23.007Z,6.78
2023-12-02T12:28:24.410Z,5.05
2023-12-02T12:33:25.985Z,5.40
2023-12-02T12:38:28.512Z,5.00
2023-12-02T12:43:29.998Z,4.82
2023-12-02T12:48:31.603Z,4.55
2023-12-02T12:53:39.582Z,4.88
2023-12-02T12:58:55.237Z,4.05
2023-12-02T13:04:06.147Z,4.80
2023-12-02T13:09:09.623Z,6.10
2023-12-02T13:14:11.758Z,9.77
2023-12-02T13:19:13.641Z,5.47
2023-12-02T13:24:16.782Z,4.82
2023-12-02T13:29:20.838Z,5.23
2023-12-02T13:34:41.684Z,6.28
2023-12-02T13:39:47.780Z,8.65
2023-12-02T13:44:51.894Z,15.65
2023-12-02T13:49:59.145Z,12.20
2023-12-02T13:55:19.454Z,7.90
2023-12-02T14:00:24.368Z,4.55
2023-12-02T14:05:44.682Z,6.00
2023-12-02T14:10:47.619Z,6.72
2023-12-02T14:15:55.312Z,6.13
2023-12-02T14:21:12.916Z,5.20
2023-12-02T14:26:36.995Z,4.28
2023-12-02T14:31:44.352Z,5.65
2023-12-02T14:37:07.346Z,6.28
2023-12-02T14:42:15.820Z,4.97
2023-12-02T14:47:17.248Z,5.90
2023-12-02T14:52:19.243Z,5.20
2023-12-02T14:57:22.061Z,5.63
2023-12-02T15:02:37.549Z,6.15
2023-12-02T15:07:40.514Z,5.32
2023-12-02T15:12:45.452Z,8.13
2023-12-02T15:17:49.338Z,7.30
2023-12-02T15:22:50.679Z,6.45
2023-12-02T15:27:51.984Z,5.72
2023-12-02T15:32:53.363Z,4.38
2023-12-02T15:37:56.165Z,5.57
2023-12-02T15:42:57.700Z,8.20
2023-12-02T15:47:59.131Z,6.22
2023-12-02T15:53:00.567Z,5.20
2023-12-02T15:58:02.248Z,11.18
2023-12-02T16:03:04.357Z,7.03
2023-12-02T16:08:08.260Z,4.70
2023-12-02T16:13:10.473Z,6.03
2023-12-02T16:18:11.854Z,5.63
2023-12-02T16:23:15.025Z,4.80
2023-12-02T16:28:16.352Z,5.90
2023-12-02T16:33:18.875Z,4.78
2023-12-02T16:38:20.448Z,5.70
2023-12-02T16:43:22.625Z,4.60
2023-12-02T16:48:24.498Z,4.40
2023-12-02T16:53:26.014Z,6.90
2023-12-02T16:58:27.421Z,8.00
2023-12-02T17:03:32.466Z,4.70
2023-12-02T17:08:34.367Z,4.90
2023-12-02T17:13:46.156Z,7.03
2023-12-02T17:19:02.825Z,4.87
2023-12-02T17:24:17.409Z,4.45
2023-12-02T17:29:20.199Z,4.40
2023-12-02T17:34:22.210Z,4.50
2023-12-02T17:39:26.378Z,4.97
2023-12-02T17:44:28.421Z,5.10
2023-12-02T17:49:32.108Z,4.97
2023-12-02T17:54:35.578Z,5.18
2023-12-02T17:59:37.088Z,5.15
2023-12-02T18:04:38.438Z,5.10
2023-12-02T18:09:40.031Z,5.53
2023-12-02T18:14:41.364Z,5.40
2023-12-02T18:19:42.735Z,5.03
2023-12-02T18:24:44.105Z,4.97
2023-12-02T18:29:45.522Z,4.97
2023-12-02T18:34:46.955Z,5.40
2023-12-02T18:39:48.298Z,5.30
2023-12-02T18:44:49.640Z,5.50
2023-12-02T18:49:51.597Z,5.72
2023-12-02T18:54:53.037Z,5.75
2023-12-02T18:59:55.170Z,5.07
2023-12-02T19:04:56.569Z,5.18
2023-12-02T19:09:57.949Z,5.20
2023-12-02T19:14:59.327Z,5.10
2023-12-02T19:20:00.823Z,4.63
2023-12-02T19:25:02.287Z,5.63
2023-12-02T19:30:04.080Z,4.97
2023-12-02T19:35:05.567Z,5.03
2023-12-02T19:40:09.436Z,5.72
2023-12-02T19:45:10.830Z,5.13
2023-12-02T19:50:13.225Z,5.27
2023-12-02T19:55:14.820Z,6.05
2023-12-02T20:00:16.378Z,5.32
2023-12-02T20:05:19.703Z,4.90
2023-12-02T20:10:21.100Z,5.50
2023-12-02T20:15:22.488Z,5.47
2023-12-02T20:20:24.239Z,6.47
2023-12-02T20:25:25.579Z,6.07
2023-12-02T20:30:26.922Z,4.97
2023-12-02T20:35:28.333Z,5.15
2023-12-02T20:40:29.644Z,4.67
2023-12-02T20:45:31.079Z,5.90
2023-12-02T20:50:32.464Z,6.05
2023-12-02T20:55:33.782Z,5.07
2023-12-02T21:00:36.055Z,6.35
2023-12-02T21:05:37.472Z,6.90
2023-12-02T21:10:40.375Z,6.28
2023-12-02T21:15:43.720Z,5.47
2023-12-02T21:20:45.915Z,5.65
2023-12-02T21:25:47.329Z,5.57
2023-12-02T21:30:48.901Z,5.63
2023-12-02T21:35:53.081Z,5.93
2023-12-02T21:40:54.485Z,5.90
2023-12-02T21:45:55.848Z,5.55
2023-12-02T21:50:57.505Z,5.75
2023-12-02T21:55:58.880Z,6.30
2023-12-02T22:01:07.196Z,6.00
2023-12-02T22:06:28.668Z,6.10
2023-12-02T22:11:38.181Z,5.65
2023-12-02T22:16:39.704Z,6.00
2023-12-02T22:21:41.139Z,5.70
2023-12-02T22:26:42.698Z,6.10
2023-12-02T22:31:44.097Z,6.22
2023-12-02T22:36:46.029Z,6.25
2023-12-02T22:41:48.511Z,6.43
2023-12-02T22:46:51.032Z,6.77
2023-12-02T22:51:53.093Z,6.78
2023-12-02T22:56:58.474Z,6.93
2023-12-02T23:01:59.856Z,7.72
2023-12-02T23:07:02.103Z,7.53
2023-12-02T23:12:04.970Z,8.60
2023-12-02T23:17:06.863Z,7.78
2023-12-02T23:22:09.735Z,7.43
2023-12-02T23:27:14.155Z,7.88
2023-12-02T23:32:16.728Z,8.05
2023-12-02T23:37:21.501Z,8.70
2023-12-02T23:42:33.406Z,8.02
2023-12-02T23:47:36.362Z,8.10
2023-12-02T23:52:39.158Z,8.80
2023-12-02T23:57:42.314Z,8.57
